Time;durP1;ratioP1;P1;durP2;ratioP2;P2;SDS_P1;SDS_P2;PMS_P1;PMS_P2;Temp;Humidity;BMP_temperature;BMP_pressure;BME280_temperature;BME280_humidity;BME280_pressure;Samples;Min_cycle;Max_cycle;Signal;HPM_P1;HPM_P2
2023/10/28 00:02:12;;;;;;;;;;;11.60;99.90;;;;;;2617470;54;19966;-74
2023/10/28 00:04:42;;;;;;;;;;;11.70;99.90;;;;;;2622052;54;19962;-74
2023/10/28 00:07:11;;;;;;;;;;;11.70;99.90;;;;;;2623287;54;19935;-73
2023/10/28 00:09:42;;;;;;;;;;;11.70;99.90;;;;;;2626009;54;19947;-74
2023/10/28 00:12:15;;;;;;;;;;;11.70;99.90;;;;;;2625113;51;19990;-73
2023/10/28 00:14:45;;;;;;;;;;;11.70;99.90;;;;;;2625401;47;19965;-74
2023/10/28 00:17:14;;;;;;;;;;;11.70;99.90;;;;;;2624310;47;19935;-73
2023/10/28 00:19:44;;;;;;;;;;;11.70;99.90;;;;;;2621179;54;20053;-73
2023/10/28 00:22:16;;;;;;;;;;;11.70;99.90;;;;;;2625254;54;19946;-74
2023/10/28 00:24:46;;;;;;;;;;;11.70;99.90;;;;;;2624082;54;19953;-73
2023/10/28 00:27:18;;;;;;;;;;;11.80;99.90;;;;;;2626166;54;19953;-74
2023/10/28 00:29:52;;;;;;;;;;;11.80;99.90;;;;;;2626479;47;19998;-73
2023/10/28 00:32:23;;;;;;;;;;;10.30;99.90;;;;;;2627301;47;19951;-72
2023/10/28 00:34:52;;;;;;;;;;;11.80;99.90;;;;;;2626017;47;19946;-74
2023/10/28 00:37:22;;;;;;;;;;;11.80;99.90;;;;;;2626616;53;19957;-74
2023/10/28 00:39:52;;;;;;;;;;;12.00;99.90;;;;;;2624380;54;20038;-74
2023/10/28 00:42:24;;;;;;;;;;;11.80;99.90;;;;;;2621615;47;19953;-74
2023/10/28 00:44:54;;;;;;;;;;;11.80;99.90;;;;;;2621223;54;20521;-74
2023/10/28 00:47:25;;;;;;;;;;;11.80;99.90;;;;;;2624732;47;19946;-74
2023/10/28 00:49:55;;;;;;;;;;;11.90;99.90;;;;;;2624965;50;19950;-74
2023/10/28 00:52:26;;;;;;;;;;;11.90;99.90;;;;;;2624662;46;19954;-75
2023/10/28 00:54:56;;;;;;;;;;;11.90;99.90;;;;;;2624822;54;19962;-74
2023/10/28 00:57:30;;;;;;;;;;;11.90;99.90;;;;;;2625393;46;19947;-74
2023/10/28 01:00:01;;;;;;;;;;;11.90;99.90;;;;;;2625702;54;19964;-73
2023/10/28 01:02:31;;;;;;;;;;;11.90;99.90;;;;;;2626662;54;19943;-74
2023/10/28 01:05:01;;;;;;;;;;;11.90;99.90;;;;;;2624837;47;19947;-75
2023/10/28 01:07:32;;;;;;;;;;;11.90;99.90;;;;;;2624796;54;20037;-74
2023/10/28 01:10:03;;;;;;;;;;;12.00;99.90;;;;;;2624799;47;19947;-74
2023/10/28 01:12:35;;;;;;;;;;;12.00;99.90;;;;;;2624651;54;19945;-74
2023/10/28 01:15:05;;;;;;;;;;;12.00;99.90;;;;;;2624618;47;20085;-74
2023/10/28 01:17:35;;;;;;;;;;;12.00;99.90;;;;;;2625821;54;19939;-74
2023/10/28 01:20:05;;;;;;;;;;;12.00;99.90;;;;;;2623898;47;19947;-74
2023/10/28 01:22:37;;;;;;;;;;;12.00;99.90;;;;;;2625271;50;19934;-74
2023/10/28 01:25:09;;;;;;;;;;;12.00;99.90;;;;;;2623027;54;19997;-73
2023/10/28 01:27:39;;;;;;;;;;;12.00;99.90;;;;;;2625285;54;19971;-74
2023/10/28 01:30:13;;;;;;;;;;;12.00;99.90;;;;;;2625085;54;19973;-74
2023/10/28 01:32:44;;;;;;;;;;;12.00;99.90;;;;;;2624189;54;20043;-74
2023/10/28 01:35:15;;;;;;;;;;;12.00;99.90;;;;;;2623851;47;19943;-74
2023/10/28 01:37:47;;;;;;;;;;;12.00;99.90;;;;;;2626003;54;19962;-74
2023/10/28 01:40:17;;;;;;;;;;;12.00;99.90;;;;;;2625935;51;19947;-74
2023/10/28 01:42:47;;;;;;;;;;;12.00;99.90;;;;;;2626011;47;19950;-74
2023/10/28 01:45:17;;;;;;;;;;;12.00;99.90;;;;;;2625711;54;19942;-74
2023/10/28 01:47:47;;;;;;;;;;;12.00;99.90;;;;;;2626117;54;19962;-74
2023/10/28 01:50:20;;;;;;;;;;;12.10;99.90;;;;;;2625134;47;19945;-73
2023/10/28 01:52:52;;;;;;;;;;;12.10;99.90;;;;;;2625456;47;19958;-74
2023/10/28 01:55:22;;;;;;;;;;;12.10;99.90;;;;;;2619578;47;20038;-74
2023/10/28 01:57:52;;;;;;;;;;;12.10;99.90;;;;;;2621741;47;19946;-74
2023/10/28 02:00:22;;;;;;;;;;;12.10;99.90;;;;;;2624953;47;19990;-74
2023/10/28 02:02:52;;;;;;;;;;;12.20;99.90;;;;;;2624673;47;19955;-74
2023/10/28 02:05:22;;;;;;;;;;;12.10;99.90;;;;;;2623582;47;19986;-75
2023/10/28 02:07:54;;;;;;;;;;;12.10;99.90;;;;;;2623725;39;20357;-75
2023/10/28 02:10:24;;;;;;;;;;;12.10;99.90;;;;;;2619404;39;20031;-74
2023/10/28 02:12:53;;;;;;;;;;;12.10;99.90;;;;;;2621896;54;19947;-75
2023/10/28 02:15:23;;;;;;;;;;;12.10;99.90;;;;;;2618145;54;19938;-75
2023/10/28 02:17:52;;;;;;;;;;;12.10;99.90;;;;;;2618916;54;19945;-74
2023/10/28 02:20:22;;;;;;;;;;;12.00;99.90;;;;;;2618624;46;19957;-73
2023/10/28 02:22:55;;;;;;;;;;;12.00;99.90;;;;;;2618741;54;19946;-73
2023/10/28 02:25:26;;;;;;;;;;;12.00;99.90;;;;;;2617401;47;19942;-74
2023/10/28 02:30:23;;;;;;;;;;;12.00;99.90;;;;;;2615449;54;19946;-72
2023/10/28 02:32:54;;;;;;;;;;;12.00;99.90;;;;;;2615268;54;19953;-72
2023/10/28 02:35:23;;;;;;;;;;;12.00;99.90;;;;;;2615573;54;19981;-72
2023/10/28 02:37:56;;;;;;;;;;;11.90;99.90;;;;;;2616309;54;19946;-72
2023/10/28 02:40:25;;;;;;;;;;;11.90;99.90;;;;;;2614606;54;19977;-72
2023/10/28 02:42:55;;;;;;;;;;;11.90;99.90;;;;;;2615583;54;19981;-72
2023/10/28 02:45:25;;;;;;;;;;;11.90;99.90;;;;;;2616095;54;19946;-72
2023/10/28 02:47:54;;;;;;;;;;;11.90;99.90;;;;;;2616253;54;20067;-72
2023/10/28 02:50:24;;;;;;;;;;;11.80;99.90;;;;;;2615331;47;20062;-72
2023/10/28 02:52:59;;;;;;;;;;;11.80;99.90;;;;;;2615519;51;19946;-72
2023/10/28 02:55:29;;;;;;;;;;;11.80;99.90;;;;;;2616462;54;19946;-72
2023/10/28 02:57:59;;;;;;;;;;;11.80;99.90;;;;;;2617160;49;19946;-72
2023/10/28 03:00:29;;;;;;;;;;;11.70;99.90;;;;;;2617041;47;19953;-72
2023/10/28 03:02:59;;;;;;;;;;;11.70;99.90;;;;;;2615304;47;19939;-73
2023/10/28 03:05:29;;;;;;;;;;;11.70;99.90;;;;;;2615711;54;19962;-72
2023/10/28 03:08:01;;;;;;;;;;;11.70;99.90;;;;;;2615348;54;19938;-72
2023/10/28 03:10:31;;;;;;;;;;;11.70;99.90;;;;;;2616876;54;19941;-72
2023/10/28 03:13:01;;;;;;;;;;;11.70;99.90;;;;;;2615397;54;19942;-72
2023/10/28 03:15:32;;;;;;;;;;;11.60;99.90;;;;;;2616107;54;19946;-71
2023/10/28 03:18:01;;;;;;;;;;;11.60;99.90;;;;;;2614978;54;19945;-71
2023/10/28 03:20:31;;;;;;;;;;;11.60;99.90;;;;;;2616211;54;19945;-71
2023/10/28 03:23:03;;;;;;;;;;;11.60;99.90;;;;;;2615832;47;19947;-71
2023/10/28 03:25:34;;;;;;;;;;;11.60;99.90;;;;;;2616036;39;20040;-71
2023/10/28 03:28:04;;;;;;;;;;;11.60;99.90;;;;;;2615628;54;19946;-72
2023/10/28 03:30:35;;;;;;;;;;;11.60;99.90;;;;;;2616677;54;19943;-72
2023/10/28 03:33:05;;;;;;;;;;;11.60;99.90;;;;;;2614283;54;19946;-71
2023/10/28 03:35:35;;;;;;;;;;;11.60;99.90;;;;;;2616030;54;19946;-71
2023/10/28 03:38:07;;;;;;;;;;;11.60;99.90;;;;;;2615999;54;20456;-72
2023/10/28 03:40:36;;;;;;;;;;;11.60;99.90;;;;;;2616521;48;19946;-72
2023/10/28 03:43:06;;;;;;;;;;;11.50;99.90;;;;;;2615134;54;19950;-72
2023/10/28 03:45:38;;;;;;;;;;;11.50;99.90;;;;;;2616340;54;20690;-72
2023/10/28 03:48:08;;;;;;;;;;;11.50;99.90;;;;;;2616374;54;19970;-71
2023/10/28 03:50:37;;;;;;;;;;;11.50;99.90;;;;;;2615973;54;20436;-72
2023/10/28 03:53:10;;;;;;;;;;;11.50;99.90;;;;;;2615978;54;19951;-72
2023/10/28 03:55:39;;;;;;;;;;;11.50;99.90;;;;;;2616364;31;20415;-72
2023/10/28 03:58:10;;;;;;;;;;;11.50;99.90;;;;;;2616699;39;20518;-72
2023/10/28 04:00:39;;;;;;;;;;;11.50;99.90;;;;;;2615593;50;19947;-72
2023/10/28 04:03:09;;;;;;;;;;;11.60;99.90;;;;;;2614627;54;19950;-72
2023/10/28 04:05:39;;;;;;;;;;;11.60;99.90;;;;;;2616127;47;19938;-72
2023/10/28 04:08:11;;;;;;;;;;;11.60;99.90;;;;;;2615721;54;19942;-72
2023/10/28 04:10:41;;;;;;;;;;;11.60;99.90;;;;;;2616599;39;20337;-72
2023/10/28 04:13:12;;;;;;;;;;;11.60;99.90;;;;;;2615065;54;19946;-72
2023/10/28 04:15:43;;;;;;;;;;;11.60;99.90;;;;;;2615684;54;19947;-72
2023/10/28 04:18:12;;;;;;;;;;;11.60;99.90;;;;;;2615053;54;20461;-74
2023/10/28 04:20:42;;;;;;;;;;;11.60;99.90;;;;;;2616483;54;19954;-72
2023/10/28 04:23:14;;;;;;;;;;;11.60;99.90;;;;;;2615525;54;19935;-72
2023/10/28 04:25:44;;;;;;;;;;;11.60;99.90;;;;;;2615118;47;19966;-72
2023/10/28 04:28:14;;;;;;;;;;;11.50;99.90;;;;;;2615313;52;19946;-72
2023/10/28 04:30:44;;;;;;;;;;;11.50;99.90;;;;;;2616268;54;20050;-72
2023/10/28 04:33:13;;;;;;;;;;;11.50;99.90;;;;;;2614795;50;19974;-72
2023/10/28 04:35:44;;;;;;;;;;;11.50;99.90;;;;;;2613540;47;19946;-72
2023/10/28 04:38:17;;;;;;;;;;;11.60;99.90;;;;;;2614139;49;19954;-72
2023/10/28 04:40:47;;;;;;;;;;;11.60;99.90;;;;;;2615765;47;19951;-72
2023/10/28 04:43:16;;;;;;;;;;;11.60;99.90;;;;;;2615384;47;20426;-72
2023/10/28 04:45:47;;;;;;;;;;;11.60;99.90;;;;;;2614675;39;20408;-72
2023/10/28 04:48:18;;;;;;;;;;;11.60;99.90;;;;;;2614214;54;19969;-72
2023/10/28 04:50:48;;;;;;;;;;;11.60;99.90;;;;;;2614365;47;19946;-72
2023/10/28 04:53:22;;;;;;;;;;;11.60;99.90;;;;;;2615921;54;20040;-72
2023/10/28 04:55:52;;;;;;;;;;;11.70;99.90;;;;;;2615199;47;19946;-73
2023/10/28 04:58:24;;;;;;;;;;;11.70;99.90;;;;;;2614684;54;20029;-73
2023/10/28 05:00:53;;;;;;;;;;;11.70;99.90;;;;;;2615075;54;20071;-74
2023/10/28 05:03:23;;;;;;;;;;;11.70;99.90;;;;;;2614988;39;21023;-72
2023/10/28 05:05:52;;;;;;;;;;;11.70;99.90;;;;;;2615059;39;20348;-73
2023/10/28 05:08:25;;;;;;;;;;;11.70;99.90;;;;;;2616021;54;19954;-73
2023/10/28 05:10:55;;;;;;;;;;;11.70;99.90;;;;;;2616573;39;20357;-73
2023/10/28 05:13:24;;;;;;;;;;;11.70;99.90;;;;;;2614906;54;19958;-72
2023/10/28 05:15:54;;;;;;;;;;;11.80;99.90;;;;;;2616725;39;20245;-72
2023/10/28 05:18:24;;;;;;;;;;;11.80;99.90;;;;;;2615421;49;20053;-72
2023/10/28 05:20:53;;;;;;;;;;;13.20;99.90;;;;;;2617055;54;20058;-72
2023/10/28 05:23:26;;;;;;;;;;;11.80;99.90;;;;;;2616091;47;19946;-72
2023/10/28 05:25:56;;;;;;;;;;;11.80;99.90;;;;;;2616482;54;19973;-73
2023/10/28 05:28:25;;;;;;;;;;;11.80;99.90;;;;;;2615974;53;19958;-73
2023/10/28 05:30:55;;;;;;;;;;;11.80;99.90;;;;;;2616471;47;19938;-73
2023/10/28 05:33:25;;;;;;;;;;;11.80;99.90;;;;;;2615876;54;19974;-73
2023/10/28 05:35:55;;;;;;;;;;;11.80;99.90;;;;;;2617257;39;20349;-73
2023/10/28 05:38:27;;;;;;;;;;;11.80;99.90;;;;;;2616605;54;19949;-73
2023/10/28 05:40:57;;;;;;;;;;;11.80;99.90;;;;;;2616706;54;19947;-73
2023/10/28 05:43:27;;;;;;;;;;;11.80;99.90;;;;;;2616133;54;19969;-72
2023/10/28 05:45:56;;;;;;;;;;;11.80;99.90;;;;;;2615578;54;19935;-72
2023/10/28 05:48:28;;;;;;;;;;;11.80;99.90;;;;;;2614830;54;20507;-72
2023/10/28 05:50:58;;;;;;;;;;;11.80;99.90;;;;;;2616883;54;19942;-73
2023/10/28 05:53:30;;;;;;;;;;;11.80;99.90;;;;;;2615103;54;20476;-73
2023/10/28 05:56:00;;;;;;;;;;;11.80;99.90;;;;;;2616020;47;19958;-74
2023/10/28 05:58:30;;;;;;;;;;;11.80;99.90;;;;;;2615300;46;19966;-73
2023/10/28 06:01:02;;;;;;;;;;;11.80;99.90;;;;;;2615828;54;19986;-72
2023/10/28 06:03:31;;;;;;;;;;;11.80;99.90;;;;;;2614161;47;19939;-73
2023/10/28 06:06:01;;;;;;;;;;;11.80;99.90;;;;;;2616186;31;20422;-73
2023/10/28 06:08:33;;;;;;;;;;;11.80;99.90;;;;;;2615330;47;19981;-73
2023/10/28 06:11:04;;;;;;;;;;;11.80;99.90;;;;;;2616217;54;19947;-73
2023/10/28 06:13:33;;;;;;;;;;;11.80;99.90;;;;;;2615428;47;19965;-73
2023/10/28 06:16:03;;;;;;;;;;;11.80;99.90;;;;;;2615790;54;19947;-74
2023/10/28 06:18:33;;;;;;;;;;;11.80;99.90;;;;;;2613771;54;20473;-74
2023/10/28 06:21:03;;;;;;;;;;;11.80;99.90;;;;;;2616547;47;19947;-73
2023/10/28 06:23:35;;;;;;;;;;;11.90;99.90;;;;;;2615859;54;19939;-73
2023/10/28 06:26:05;;;;;;;;;;;10.90;99.90;;;;;;2615649;54;19947;-73
2023/10/28 06:28:35;;;;;;;;;;;11.90;99.90;;;;;;2615658;47;19946;-74
2023/10/28 06:31:04;;;;;;;;;;;11.90;99.90;;;;;;2614806;54;19977;-73
2023/10/28 06:33:35;;;;;;;;;;;11.90;99.90;;;;;;2614460;47;19946;-72
2023/10/28 06:36:05;;;;;;;;;;;11.90;99.90;;;;;;2615088;47;20509;-72
2023/10/28 06:38:37;;;;;;;;;;;11.90;99.90;;;;;;2615501;54;20041;-73
2023/10/28 06:41:09;;;;;;;;;;;11.90;99.90;;;;;;2615640;54;19953;-74
2023/10/28 06:43:38;;;;;;;;;;;11.90;99.90;;;;;;2614971;39;20376;-73
2023/10/28 06:46:09;;;;;;;;;;;11.90;99.90;;;;;;2615107;39;20440;-72
2023/10/28 06:48:39;;;;;;;;;;;11.90;99.90;;;;;;2615129;47;19954;-70
2023/10/28 06:51:12;;;;;;;;;;;12.00;99.90;;;;;;2616001;47;19935;-76
2023/10/28 06:53:44;;;;;;;;;;;12.00;99.90;;;;;;2615779;54;19953;-74
2023/10/28 06:56:14;;;;;;;;;;;12.00;99.90;;;;;;2615185;54;19947;-73
2023/10/28 06:58:44;;;;;;;;;;;11.90;99.90;;;;;;2614946;54;20453;-74
2023/10/28 07:01:13;;;;;;;;;;;12.00;99.90;;;;;;2614964;47;19947;-72
2023/10/28 07:03:43;;;;;;;;;;;12.00;99.90;;;;;;2615515;54;19939;-75
2023/10/28 07:06:14;;;;;;;;;;;12.10;99.90;;;;;;2614598;47;19958;-74
2023/10/28 07:08:48;;;;;;;;;;;12.00;99.90;;;;;;2615081;47;19953;-75
2023/10/28 07:11:18;;;;;;;;;;;12.00;99.90;;;;;;2615829;47;19939;-74
2023/10/28 07:13:47;;;;;;;;;;;12.10;99.90;;;;;;2615018;47;20036;-74
2023/10/28 07:16:18;;;;;;;;;;;12.10;99.90;;;;;;2614828;49;19946;-75
2023/10/28 07:18:48;;;;;;;;;;;12.10;99.90;;;;;;2615123;47;19947;-74
2023/10/28 07:21:17;;;;;;;;;;;12.10;99.90;;;;;;2615721;47;19946;-74
2023/10/28 07:23:50;;;;;;;;;;;12.10;99.90;;;;;;2615436;54;20465;-75
2023/10/28 07:26:19;;;;;;;;;;;12.20;99.90;;;;;;2615035;47;19938;-75
2023/10/28 07:28:49;;;;;;;;;;;12.20;99.90;;;;;;2616209;47;19955;-74
2023/10/28 07:31:19;;;;;;;;;;;12.20;99.90;;;;;;2615675;47;20540;-75
2023/10/28 07:33:48;;;;;;;;;;;12.20;99.90;;;;;;2614636;54;19947;-75
2023/10/28 07:36:18;;;;;;;;;;;12.20;99.90;;;;;;2614588;54;19958;-74
2023/10/28 07:38:50;;;;;;;;;;;12.20;99.90;;;;;;2616364;39;20340;-75
2023/10/28 07:41:20;;;;;;;;;;;12.30;99.90;;;;;;2615359;39;20331;-76
2023/10/28 07:43:50;;;;;;;;;;;12.30;99.90;;;;;;2615970;53;19986;-75
2023/10/28 07:46:19;;;;;;;;;;;12.30;99.90;;;;;;2614778;47;19946;-75
2023/10/28 07:48:49;;;;;;;;;;;12.30;99.90;;;;;;2615538;39;20384;-76
2023/10/28 07:51:19;;;;;;;;;;;12.30;99.90;;;;;;2615661;50;20429;-76
2023/10/28 07:53:52;;;;;;;;;;;12.30;99.90;;;;;;2615697;47;19951;-75
2023/10/28 07:56:22;;;;;;;;;;;12.30;99.90;;;;;;2614937;47;19951;-76
2023/10/28 07:58:57;;;;;;;;;;;12.30;99.90;;;;;;2615413;47;19955;-75
2023/10/28 08:01:27;;;;;;;;;;;12.40;99.90;;;;;;2614964;54;19939;-75
2023/10/28 08:03:56;;;;;;;;;;;12.40;99.90;;;;;;2615232;47;20057;-76
2023/10/28 08:06:27;;;;;;;;;;;12.40;99.90;;;;;;2615959;48;20453;-75
2023/10/28 08:09:08;;;;;;;;;;;12.00;99.90;;;;;;2615199;47;19946;-75
2023/10/28 08:11:38;;;;;;;;;;;12.40;99.90;;;;;;2614471;54;20063;-75
2023/10/28 08:14:08;;;;;;;;;;;12.40;99.90;;;;;;2614942;48;19950;-75
2023/10/28 08:16:38;;;;;;;;;;;12.40;99.90;;;;;;2614919;47;19942;-74
2023/10/28 08:19:08;;;;;;;;;;;12.40;99.90;;;;;;2614548;54;19947;-76
2023/10/28 08:21:38;;;;;;;;;;;12.40;99.90;;;;;;2614862;52;20041;-75
2023/10/28 08:24:12;;;;;;;;;;;12.40;99.90;;;;;;2616009;54;19957;-77
2023/10/28 08:26:42;;;;;;;;;;;12.40;99.90;;;;;;2615643;54;19946;-74
2023/10/28 08:29:12;;;;;;;;;;;12.50;99.90;;;;;;2616628;39;20393;-74
2023/10/28 08:31:41;;;;;;;;;;;12.50;99.90;;;;;;2616568;47;19961;-76
2023/10/28 08:34:11;;;;;;;;;;;12.60;99.90;;;;;;2615192;47;19957;-75
2023/10/28 08:36:41;;;;;;;;;;;12.60;99.90;;;;;;2615535;47;20037;-75
2023/10/28 08:39:14;;;;;;;;;;;12.60;99.90;;;;;;2615714;54;19946;-75
2023/10/28 08:41:46;;;;;;;;;;;12.70;99.90;;;;;;2615356;47;19938;-75
2023/10/28 08:44:17;;;;;;;;;;;12.60;99.90;;;;;;2615128;39;20354;-75
2023/10/28 08:46:48;;;;;;;;;;;12.70;99.90;;;;;;2615230;47;19942;-74
2023/10/28 08:49:19;;;;;;;;;;;12.70;99.90;;;;;;2615652;47;19943;-74
2023/10/28 08:51:51;;;;;;;;;;;12.80;99.90;;;;;;2615545;54;19942;-74
2023/10/28 08:54:23;;;;;;;;;;;12.70;99.90;;;;;;2615560;47;19973;-74
2023/10/28 08:56:53;;;;;;;;;;;12.70;99.90;;;;;;2614400;54;19946;-74
2023/10/28 08:59:23;;;;;;;;;;;12.80;99.90;;;;;;2615087;54;19947;-74
2023/10/28 09:01:53;;;;;;;;;;;12.80;99.90;;;;;;2615752;54;19954;-74
2023/10/28 09:04:23;;;;;;;;;;;12.80;99.90;;;;;;2616102;39;20356;-75
2023/10/28 09:06:53;;;;;;;;;;;12.80;99.90;;;;;;2616170;54;20447;-75
2023/10/28 09:09:25;;;;;;;;;;;12.90;99.90;;;;;;2616469;54;19939;-75
2023/10/28 09:11:57;;;;;;;;;;;12.90;99.90;;;;;;2616713;47;19947;-74
2023/10/28 09:14:27;;;;;;;;;;;12.90;99.90;;;;;;2616217;54;19954;-74
2023/10/28 09:17:00;;;;;;;;;;;12.90;99.90;;;;;;2616684;47;19946;-75
2023/10/28 09:19:30;;;;;;;;;;;12.90;99.90;;;;;;2615728;54;19946;-74
2023/10/28 09:22:01;;;;;;;;;;;12.80;99.90;;;;;;2614989;47;19947;-73
2023/10/28 09:24:33;;;;;;;;;;;12.90;99.90;;;;;;2615547;54;19943;-73
2023/10/28 09:27:04;;;;;;;;;;;13.00;99.90;;;;;;2615349;46;19947;-73
2023/10/28 09:29:33;;;;;;;;;;;13.00;99.90;;;;;;2615808;54;19954;-73
2023/10/28 09:32:08;;;;;;;;;;;13.00;99.90;;;;;;2616435;47;19946;-72
2023/10/28 09:34:38;;;;;;;;;;;13.10;99.90;;;;;;2615662;54;20450;-77
2023/10/28 09:37:08;;;;;;;;;;;13.00;99.90;;;;;;2617144;46;19957;-76
2023/10/28 09:39:46;;;;;;;;;;;13.20;99.90;;;;;;2616261;54;19947;-73
2023/10/28 09:42:17;;;;;;;;;;;13.20;99.90;;;;;;2616305;47;20649;-73
2023/10/28 09:44:47;;;;;;;;;;;13.40;99.90;;;;;;2616111;54;19953;-72
2023/10/28 09:47:21;;;;;;;;;;;13.50;99.90;;;;;;2616597;54;19934;-73
2023/10/28 09:49:53;;;;;;;;;;;13.50;99.90;;;;;;2616215;54;19939;-72
2023/10/28 09:52:26;;;;;;;;;;;13.60;99.90;;;;;;2616361;47;19948;-72
2023/10/28 09:54:59;;;;;;;;;;;13.70;99.90;;;;;;2616378;54;19939;-73
2023/10/28 09:57:30;;;;;;;;;;;13.70;99.90;;;;;;2616497;39;20385;-72
2023/10/28 10:00:00;;;;;;;;;;;13.70;99.90;;;;;;2615043;54;19935;-72
2023/10/28 10:02:32;;;;;;;;;;;13.70;99.90;;;;;;2614701;39;20338;-73
2023/10/28 10:05:06;;;;;;;;;;;13.70;99.90;;;;;;2613492;54;19981;-73
2023/10/28 10:07:36;;;;;;;;;;;13.70;99.90;;;;;;2612785;46;19969;-72
2023/10/28 10:10:13;;;;;;;;;;;13.70;99.90;;;;;;2616335;54;20448;-72
2023/10/28 10:12:43;;;;;;;;;;;13.70;99.90;;;;;;2621637;54;19938;-73
2023/10/28 10:15:19;;;;;;;;;;;13.70;99.90;;;;;;2622018;46;20022;-73
2023/10/28 10:17:57;;;;;;;;;;;13.70;99.90;;;;;;2622587;54;19938;-73
2023/10/28 10:20:28;;;;;;;;;;;13.70;99.90;;;;;;2617678;54;19947;-73
2023/10/28 10:23:01;;;;;;;;;;;13.70;99.90;;;;;;2616460;47;19945;-73
2023/10/28 10:25:39;;;;;;;;;;;13.70;99.90;;;;;;2613601;54;19946;-73
2023/10/28 10:28:18;;;;;;;;;;;13.70;99.90;;;;;;2616073;54;19947;-73
2023/10/28 10:30:48;;;;;;;;;;;13.70;99.90;;;;;;2616608;54;19969;-73
2023/10/28 10:33:26;;;;;;;;;;;13.80;99.90;;;;;;2616168;54;19949;-73
2023/10/28 10:35:56;;;;;;;;;;;13.80;99.90;;;;;;2616467;54;19947;-73
2023/10/28 10:38:29;;;;;;;;;;;13.80;99.90;;;;;;2616082;54;19946;-73
2023/10/28 10:41:02;;;;;;;;;;;13.80;99.90;;;;;;2616124;47;20441;-73
2023/10/28 10:43:32;;;;;;;;;;;13.80;99.90;;;;;;2613837;54;20252;-73
2023/10/28 10:46:02;;;;;;;;;;;13.80;99.90;;;;;;2613820;54;20453;-73
2023/10/28 10:48:33;;;;;;;;;;;13.80;99.90;;;;;;2615379;47;19993;-73
2023/10/28 10:51:03;;;;;;;;;;;13.90;99.90;;;;;;2615958;54;20461;-73
2023/10/28 10:53:42;;;;;;;;;;;13.90;99.90;;;;;;2615362;39;20020;-72
2023/10/28 10:56:23;;;;;;;;;;;13.90;99.90;;;;;;2615158;47;19942;-72
2023/10/28 10:58:52;;;;;;;;;;;13.90;99.90;;;;;;2601027;54;20046;-72
2023/10/28 11:01:23;;;;;;;;;;;13.90;99.90;;;;;;2596876;54;19962;-72
2023/10/28 11:03:52;;;;;;;;;;;13.90;99.90;;;;;;2596815;54;19958;-72
2023/10/28 11:06:23;;;;;;;;;;;13.90;99.90;;;;;;2599025;47;20011;-72
2023/10/28 11:08:53;;;;;;;;;;;13.90;99.90;;;;;;2600879;39;20374;-73
2023/10/28 11:11:25;;;;;;;;;;;13.90;99.90;;;;;;2598722;54;20002;-72
2023/10/28 11:13:55;;;;;;;;;;;13.80;99.90;;;;;;2598296;54;19946;-72
2023/10/28 11:16:29;;;;;;;;;;;13.90;99.90;;;;;;2598510;47;19985;-71
2023/10/28 11:18:59;;;;;;;;;;;13.90;99.90;;;;;;2597769;54;19954;-72
2023/10/28 11:21:29;;;;;;;;;;;13.90;99.90;;;;;;2599227;47;19971;-72
2023/10/28 11:23:59;;;;;;;;;;;13.90;99.90;;;;;;2599194;54;19946;-72
2023/10/28 11:26:31;;;;;;;;;;;13.90;99.90;;;;;;2598944;54;20070;-73
2023/10/28 11:29:01;;;;;;;;;;;13.90;99.90;;;;;;2597611;54;20533;-71
2023/10/28 11:31:31;;;;;;;;;;;13.90;99.90;;;;;;2599080;39;20392;-70
2023/10/28 11:34:04;;;;;;;;;;;14.00;99.90;;;;;;2599149;31;20421;-71
2023/10/28 11:36:33;;;;;;;;;;;14.00;99.90;;;;;;2598505;47;20666;-72
2023/10/28 11:39:08;;;;;;;;;;;14.00;99.90;;;;;;2599088;54;19978;-72
2023/10/28 11:41:41;;;;;;;;;;;14.00;99.90;;;;;;2598063;47;19951;-73
2023/10/28 11:44:11;;;;;;;;;;;14.00;99.90;;;;;;2599139;54;19958;-62
2023/10/28 11:46:41;;;;;;;;;;;14.00;99.90;;;;;;2597826;54;19951;-63
2023/10/28 11:49:11;;;;;;;;;;;14.00;99.90;;;;;;2598431;39;20376;-61
2023/10/28 11:51:40;;;;;;;;;;;14.00;99.90;;;;;;2596742;54;19955;-62
2023/10/28 11:54:10;;;;;;;;;;;14.00;99.90;;;;;;2598168;39;20529;-63
2023/10/28 11:56:42;;;;;;;;;;;14.00;99.90;;;;;;2598158;39;20345;-63
2023/10/28 11:59:12;;;;;;;;;;;14.10;99.90;;;;;;2596440;54;19946;-62
2023/10/28 12:01:42;;;;;;;;;;;14.10;99.90;;;;;;2597882;54;19950;-61
2023/10/28 12:04:11;;;;;;;;;;;14.10;99.90;;;;;;2597727;39;20361;-62
2023/10/28 12:06:42;;;;;;;;;;;14.10;99.90;;;;;;2598180;39;20376;-62
2023/10/28 12:09:14;;;;;;;;;;;14.20;99.90;;;;;;2598566;54;21087;-62
2023/10/28 12:11:48;;;;;;;;;;;14.20;99.90;;;;;;2597628;54;20468;-61
2023/10/28 12:14:17;;;;;;;;;;;14.20;99.90;;;;;;2598188;47;19953;-62
2023/10/28 12:16:47;;;;;;;;;;;14.20;99.90;;;;;;2599043;54;19947;-62
2023/10/28 12:19:18;;;;;;;;;;;14.20;99.90;;;;;;2599104;54;19985;-62
2023/10/28 12:21:47;;;;;;;;;;;14.20;99.90;;;;;;2598890;54;19954;-63
2023/10/28 12:24:17;;;;;;;;;;;14.20;99.90;;;;;;2598579;54;19950;-63
2023/10/28 12:26:49;;;;;;;;;;;14.20;99.90;;;;;;2598030;54;19947;-63
2023/10/28 12:29:19;;;;;;;;;;;14.20;99.90;;;;;;2598239;54;19954;-62
2023/10/28 12:31:49;;;;;;;;;;;14.20;99.90;;;;;;2598917;54;19954;-73
2023/10/28 12:34:19;;;;;;;;;;;14.20;99.90;;;;;;2598368;47;19953;-74
2023/10/28 12:36:49;;;;;;;;;;;14.20;99.90;;;;;;2598245;47;19947;-75
2023/10/28 12:39:20;;;;;;;;;;;14.20;99.90;;;;;;2600036;54;19947;-74
2023/10/28 12:41:52;;;;;;;;;;;14.10;99.90;;;;;;2599452;47;20601;-73
2023/10/28 12:44:22;;;;;;;;;;;14.20;99.90;;;;;;2598574;47;19946;-73
2023/10/28 12:46:51;;;;;;;;;;;14.10;99.90;;;;;;2599510;54;19939;-73
2023/10/28 12:49:21;;;;;;;;;;;14.10;99.90;;;;;;2598886;47;19946;-73
2023/10/28 12:51:53;;;;;;;;;;;13.40;99.90;;;;;;2598773;54;19973;-73
2023/10/28 12:54:23;;;;;;;;;;;14.20;99.90;;;;;;2598866;54;20658;-74
2023/10/28 12:56:55;;;;;;;;;;;14.20;99.90;;;;;;2599175;47;20623;-74
2023/10/28 12:59:25;;;;;;;;;;;14.20;99.90;;;;;;2598831;47;19953;-74
2023/10/28 13:01:55;;;;;;;;;;;14.20;99.90;;;;;;2602428;54;19954;-73
2023/10/28 13:04:25;;;;;;;;;;;14.20;99.90;;;;;;2600535;47;19946;-74
2023/10/28 13:06:54;;;;;;;;;;;14.20;99.90;;;;;;2599895;49;20494;-74
2023/10/28 13:09:25;;;;;;;;;;;14.20;99.90;;;;;;2599735;54;19954;-72
2023/10/28 13:11:59;;;;;;;;;;;14.20;99.90;;;;;;2600248;54;19981;-75
2023/10/28 13:14:29;;;;;;;;;;;14.20;99.90;;;;;;2600364;54;20461;-76
2023/10/28 13:16:59;;;;;;;;;;;14.20;99.90;;;;;;2602656;47;19958;-76
2023/10/28 13:19:29;;;;;;;;;;;14.20;99.90;;;;;;2599218;54;19951;-74
2023/10/28 13:21:58;;;;;;;;;;;14.20;99.90;;;;;;2599550;47;21651;-73
2023/10/28 13:24:29;;;;;;;;;;;14.20;99.90;;;;;;2599459;54;19947;-75
2023/10/28 13:27:01;;;;;;;;;;;14.20;99.90;;;;;;2598680;47;19957;-75
2023/10/28 13:29:31;;;;;;;;;;;14.10;99.90;;;;;;2600733;54;19946;-75
2023/10/28 13:32:01;;;;;;;;;;;14.10;99.90;;;;;;2600690;54;19961;-74
2023/10/28 13:34:31;;;;;;;;;;;14.10;99.90;;;;;;2599289;47;19954;-74
2023/10/28 13:37:02;;;;;;;;;;;14.10;99.90;;;;;;2600104;39;20338;-74
2023/10/28 13:39:31;;;;;;;;;;;14.00;99.90;;;;;;2599438;47;19950;-74
2023/10/28 13:42:04;;;;;;;;;;;14.40;99.90;;;;;;2601112;47;19954;-76
2023/10/28 13:44:33;;;;;;;;;;;13.90;99.90;;;;;;2617016;47;19946;-76
2023/10/28 13:47:03;;;;;;;;;;;13.90;99.90;;;;;;2618333;54;19953;-76
2023/10/28 13:49:34;;;;;;;;;;;13.90;99.90;;;;;;2617859;47;20071;-77
2023/10/28 13:52:04;;;;;;;;;;;13.80;99.90;;;;;;2616547;54;20444;-76
2023/10/28 13:54:34;;;;;;;;;;;13.90;99.90;;;;;;2616955;47;19939;-76
2023/10/28 13:57:06;;;;;;;;;;;13.80;99.90;;;;;;2618156;46;19953;-77
2023/10/28 13:59:36;;;;;;;;;;;13.80;99.90;;;;;;2619747;47;19947;-77
2023/10/28 14:02:08;;;;;;;;;;;13.80;99.90;;;;;;2623313;47;19956;-74
2023/10/28 14:04:41;;;;;;;;;;;13.80;99.90;;;;;;2626423;54;19951;-76
2023/10/28 14:07:12;;;;;;;;;;;13.80;99.90;;;;;;2628372;47;20539;-75
2023/10/28 14:09:43;;;;;;;;;;;13.80;99.90;;;;;;2618889;47;19958;-74
2023/10/28 14:12:15;;;;;;;;;;;13.90;99.90;;;;;;2618803;54;19946;-73
2023/10/28 14:14:45;;;;;;;;;;;13.90;99.90;;;;;;2614892;54;19954;-73
2023/10/28 14:17:15;;;;;;;;;;;13.90;99.90;;;;;;2615783;54;19951;-75
2023/10/28 14:19:46;;;;;;;;;;;13.90;99.90;;;;;;2615419;54;19939;-74
2023/10/28 14:22:16;;;;;;;;;;;13.90;99.90;;;;;;2615384;54;19946;-74
2023/10/28 14:24:45;;;;;;;;;;;13.90;99.90;;;;;;2615147;39;20357;-75
2023/10/28 14:27:18;;;;;;;;;;;13.90;99.90;;;;;;2615485;54;19938;-75
2023/10/28 14:29:53;;;;;;;;;;;14.00;99.90;;;;;;2615020;54;20030;-75
2023/10/28 14:32:31;;;;;;;;;;;13.90;99.90;;;;;;2617273;54;20440;-74
2023/10/28 14:35:05;;;;;;;;;;;14.00;99.90;;;;;;2615668;54;19939;-74
2023/10/28 14:37:36;;;;;;;;;;;13.90;99.90;;;;;;2616595;47;19953;-75
2023/10/28 14:40:07;;;;;;;;;;;13.90;99.90;;;;;;2616463;47;19973;-74